sensor_id;sensor_type;location;lat;lon;timestamp;pressure;altitude;pressure_sealevel;temperature;humidity
11114;BME280;5610;52.154;9.198;2024-02-14T00:02:32;100778.84;;;7.86;100.00
11114;BME280;5610;52.154;9.198;2024-02-14T00:05:18;100781.88;;;7.97;100.00
11114;BME280;5610;52.154;9.198;2024-02-14T00:08:05;100785.13;;;8.02;100.00
11114;BME280;5610;52.154;9.198;2024-02-14T00:10:51;100785.13;;;8.02;100.00
11114;BME280;5610;52.154;9.198;2024-02-14T00:13:37;100783.50;;;7.99;100.00
11114;BME280;5610;52.154;9.198;2024-02-14T00:16:22;100782.25;;;7.70;100.00
11114;BME280;5610;52.154;9.198;2024-02-14T00:19:07;100769.81;;;7.90;100.00
11114;BME280;5610;52.154;9.198;2024-02-14T00:21:53;100767.50;;;8.01;100.00
11114;BME280;5610;52.154;9.198;2024-02-14T00:24:39;100759.44;;;8.03;100.00
11114;BME280;5610;52.154;9.198;2024-02-14T00:27:24;100746.50;;;7.96;100.00
11114;BME280;5610;52.154;9.198;2024-02-14T00:30:10;100752.22;;;8.06;100.00
11114;BME280;5610;52.154;9.198;2024-02-14T00:32:55;100745.78;;;8.10;100.00
11114;BME280;5610;52.154;9.198;2024-02-14T00:35:41;100738.47;;;8.15;100.00
11114;BME280;5610;52.154;9.198;2024-02-14T00:38:27;100738.34;;;8.18;100.00
11114;BME280;5610;52.154;9.198;2024-02-14T00:41:12;100736.53;;;8.19;100.00
11114;BME280;5610;52.154;9.198;2024-02-14T00:43:57;100737.41;;;8.19;100.00
11114;BME280;5610;52.154;9.198;2024-02-14T00:46:42;100736.75;;;8.14;100.00
11114;BME280;5610;52.154;9.198;2024-02-14T00:49:28;100729.81;;;8.12;100.00
11114;BME280;5610;52.154;9.198;2024-02-14T00:52:13;100726.44;;;8.08;100.00
11114;BME280;5610;52.154;9.198;2024-02-14T00:55:02;100724.91;;;8.04;100.00
11114;BME280;5610;52.154;9.198;2024-02-14T00:57:48;100718.94;;;7.99;100.00
11114;BME280;5610;52.154;9.198;2024-02-14T01:00:33;100723.53;;;7.95;100.00
11114;BME280;5610;52.154;9.198;2024-02-14T01:03:18;100712.91;;;7.95;100.00
11114;BME280;5610;52.154;9.198;2024-02-14T01:06:04;100701.22;;;7.99;100.00
11114;BME280;5610;52.154;9.198;2024-02-14T01:08:49;100709.84;;;8.05;100.00
11114;BME280;5610;52.154;9.198;2024-02-14T01:11:35;100706.88;;;8.11;100.00
11114;BME280;5610;52.154;9.198;2024-02-14T01:14:22;100703.88;;;8.17;100.00
11114;BME280;5610;52.154;9.198;2024-02-14T01:17:07;100704.59;;;8.20;100.00
11114;BME280;5610;52.154;9.198;2024-02-14T01:19:53;100695.03;;;8.18;100.00
11114;BME280;5610;52.154;9.198;2024-02-14T01:22:38;100698.13;;;8.26;100.00
11114;BME280;5610;52.154;9.198;2024-02-14T01:25:23;100692.81;;;8.26;100.00
11114;BME280;5610;52.154;9.198;2024-02-14T01:28:10;100694.94;;;8.37;100.00
11114;BME280;5610;52.154;9.198;2024-02-14T01:30:55;100691.97;;;8.25;100.00
11114;BME280;5610;52.154;9.198;2024-02-14T01:33:41;100690.19;;;8.43;100.00
11114;BME280;5610;52.154;9.198;2024-02-14T01:36:26;100679.97;;;8.53;100.00
11114;BME280;5610;52.154;9.198;2024-02-14T01:39:11;100679.47;;;8.45;100.00
11114;BME280;5610;52.154;9.198;2024-02-14T01:41:56;100671.59;;;8.43;100.00
11114;BME280;5610;52.154;9.198;2024-02-14T01:44:43;100670.41;;;8.32;100.00
11114;BME280;5610;52.154;9.198;2024-02-14T01:47:28;100657.06;;;8.33;100.00
11114;BME280;5610;52.154;9.198;2024-02-14T01:50:16;100656.78;;;8.39;100.00
11114;BME280;5610;52.154;9.198;2024-02-14T01:53:02;100644.53;;;8.52;100.00
11114;BME280;5610;52.154;9.198;2024-02-14T01:55:48;100636.25;;;8.59;100.00
11114;BME280;5610;52.154;9.198;2024-02-14T01:58:34;100643.91;;;8.65;100.00
11114;BME280;5610;52.154;9.198;2024-02-14T02:01:23;100632.50;;;8.63;100.00
11114;BME280;5610;52.154;9.198;2024-02-14T02:04:09;100627.00;;;8.50;100.00
11114;BME280;5610;52.154;9.198;2024-02-14T02:06:55;100630.28;;;8.71;100.00
11114;BME280;5610;52.154;9.198;2024-02-14T02:09:40;100627.88;;;8.66;100.00
11114;BME280;5610;52.154;9.198;2024-02-14T02:12:26;100627.81;;;8.68;100.00
11114;BME280;5610;52.154;9.198;2024-02-14T02:15:11;100626.66;;;8.56;100.00
11114;BME280;5610;52.154;9.198;2024-02-14T02:18:00;100617.72;;;8.41;100.00
11114;BME280;5610;52.154;9.198;2024-02-14T02:20:46;100617.06;;;8.53;100.00
11114;BME280;5610;52.154;9.198;2024-02-14T02:23:32;100616.66;;;8.61;100.00
11114;BME280;5610;52.154;9.198;2024-02-14T02:26:17;100620.41;;;8.57;100.00
11114;BME280;5610;52.154;9.198;2024-02-14T02:29:03;100611.88;;;8.68;100.00
11114;BME280;5610;52.154;9.198;2024-02-14T02:31:49;100622.94;;;8.76;100.00
11114;BME280;5610;52.154;9.198;2024-02-14T02:34:34;100615.31;;;8.86;100.00
11114;BME280;5610;52.154;9.198;2024-02-14T02:37:20;100611.34;;;8.61;100.00
11114;BME280;5610;52.154;9.198;2024-02-14T02:40:08;100606.38;;;8.71;100.00
11114;BME280;5610;52.154;9.198;2024-02-14T02:42:54;100599.00;;;8.60;100.00
11114;BME280;5610;52.154;9.198;2024-02-14T02:45:40;100599.50;;;8.67;100.00
11114;BME280;5610;52.154;9.198;2024-02-14T02:48:26;100592.34;;;8.69;100.00
11114;BME280;5610;52.154;9.198;2024-02-14T02:51:11;100584.50;;;8.66;100.00
11114;BME280;5610;52.154;9.198;2024-02-14T02:53:56;100586.00;;;8.71;100.00
11114;BME280;5610;52.154;9.198;2024-02-14T02:56:43;100589.69;;;8.69;100.00
11114;BME280;5610;52.154;9.198;2024-02-14T02:59:29;100591.81;;;8.62;100.00
11114;BME280;5610;52.154;9.198;2024-02-14T03:02:14;100580.91;;;8.67;100.00
11114;BME280;5610;52.154;9.198;2024-02-14T03:05:00;100585.41;;;8.82;100.00
11114;BME280;5610;52.154;9.198;2024-02-14T03:07:47;100592.25;;;8.86;100.00
11114;BME280;5610;52.154;9.198;2024-02-14T03:10:33;100583.09;;;8.76;100.00
11114;BME280;5610;52.154;9.198;2024-02-14T03:13:20;100577.44;;;8.82;100.00
11114;BME280;5610;52.154;9.198;2024-02-14T03:16:05;100576.59;;;8.82;100.00
11114;BME280;5610;52.154;9.198;2024-02-14T03:18:51;100578.31;;;8.83;100.00
11114;BME280;5610;52.154;9.198;2024-02-14T03:21:37;100573.56;;;8.88;100.00
11114;BME280;5610;52.154;9.198;2024-02-14T03:24:22;100572.81;;;8.86;100.00
11114;BME280;5610;52.154;9.198;2024-02-14T03:27:09;100573.41;;;8.75;100.00
11114;BME280;5610;52.154;9.198;2024-02-14T03:29:56;100562.69;;;8.92;100.00
11114;BME280;5610;52.154;9.198;2024-02-14T03:32:45;100567.59;;;8.84;100.00
11114;BME280;5610;52.154;9.198;2024-02-14T03:35:30;100563.88;;;8.87;100.00
11114;BME280;5610;52.154;9.198;2024-02-14T03:38:24;100558.41;;;8.74;100.00
11114;BME280;5610;52.154;9.198;2024-02-14T03:41:09;100545.63;;;8.80;100.00
11114;BME280;5610;52.154;9.198;2024-02-14T03:43:54;100543.75;;;8.98;100.00
11114;BME280;5610;52.154;9.198;2024-02-14T03:46:43;100545.97;;;8.90;100.00
11114;BME280;5610;52.154;9.198;2024-02-14T03:49:29;100537.06;;;8.91;100.00
11114;BME280;5610;52.154;9.198;2024-02-14T03:52:14;100535.06;;;8.95;100.00
11114;BME280;5610;52.154;9.198;2024-02-14T03:55:00;100534.00;;;8.83;100.00
11114;BME280;5610;52.154;9.198;2024-02-14T03:57:45;100531.56;;;8.94;100.00
11114;BME280;5610;52.154;9.198;2024-02-14T04:00:31;100548.03;;;8.85;100.00
11114;BME280;5610;52.154;9.198;2024-02-14T04:03:17;100553.09;;;9.05;100.00
11114;BME280;5610;52.154;9.198;2024-02-14T04:06:03;100541.84;;;9.00;100.00
11114;BME280;5610;52.154;9.198;2024-02-14T04:08:48;100535.97;;;8.95;100.00
11114;BME280;5610;52.154;9.198;2024-02-14T04:11:34;100531.22;;;9.00;100.00
11114;BME280;5610;52.154;9.198;2024-02-14T04:14:19;100532.00;;;9.02;100.00
11114;BME280;5610;52.154;9.198;2024-02-14T04:17:05;100540.34;;;8.96;100.00
11114;BME280;5610;52.154;9.198;2024-02-14T04:19:52;100543.56;;;8.86;100.00
11114;BME280;5610;52.154;9.198;2024-02-14T04:22:38;100546.81;;;8.59;100.00
11114;BME280;5610;52.154;9.198;2024-02-14T04:25:23;100549.13;;;8.65;100.00
11114;BME280;5610;52.154;9.198;2024-02-14T04:28:08;100545.63;;;8.65;100.00
11114;BME280;5610;52.154;9.198;2024-02-14T04:30:55;100547.69;;;8.75;100.00
11114;BME280;5610;52.154;9.198;2024-02-14T04:33:41;100537.66;;;8.65;100.00
11114;BME280;5610;52.154;9.198;2024-02-14T04:36:28;100537.84;;;8.62;100.00
11114;BME280;5610;52.154;9.198;2024-02-14T04:39:14;100540.50;;;8.62;100.00
11114;BME280;5610;52.154;9.198;2024-02-14T04:42:00;100535.41;;;8.57;100.00
11114;BME280;5610;52.154;9.198;2024-02-14T04:44:46;100550.06;;;8.48;100.00
11114;BME280;5610;52.154;9.198;2024-02-14T04:47:32;100533.69;;;8.40;100.00
11114;BME280;5610;52.154;9.198;2024-02-14T04:50:18;100534.56;;;8.41;100.00
11114;BME280;5610;52.154;9.198;2024-02-14T04:53:04;100537.22;;;8.41;100.00
11114;BME280;5610;52.154;9.198;2024-02-14T04:55:51;100518.63;;;8.41;100.00
11114;BME280;5610;52.154;9.198;2024-02-14T04:58:36;100522.22;;;8.56;100.00
11114;BME280;5610;52.154;9.198;2024-02-14T05:01:21;100526.00;;;8.51;100.00
11114;BME280;5610;52.154;9.198;2024-02-14T05:04:07;100532.00;;;8.39;100.00
11114;BME280;5610;52.154;9.198;2024-02-14T05:06:52;100520.44;;;8.40;100.00
11114;BME280;5610;52.154;9.198;2024-02-14T05:09:39;100531.25;;;8.53;100.00
11114;BME280;5610;52.154;9.198;2024-02-14T05:12:24;100520.44;;;8.56;100.00
11114;BME280;5610;52.154;9.198;2024-02-14T05:15:10;100534.56;;;8.57;100.00
11114;BME280;5610;52.154;9.198;2024-02-14T05:17:56;100532.69;;;8.59;100.00
11114;BME280;5610;52.154;9.198;2024-02-14T05:20:41;100524.88;;;8.56;100.00
11114;BME280;5610;52.154;9.198;2024-02-14T05:23:26;100530.44;;;8.67;100.00
11114;BME280;5610;52.154;9.198;2024-02-14T05:26:12;100526.09;;;8.66;100.00
11114;BME280;5610;52.154;9.198;2024-02-14T05:28:58;100524.66;;;8.60;100.00
11114;BME280;5610;52.154;9.198;2024-02-14T05:31:44;100527.47;;;8.57;100.00
11114;BME280;5610;52.154;9.198;2024-02-14T05:34:30;100524.38;;;8.49;100.00
11114;BME280;5610;52.154;9.198;2024-02-14T05:37:15;100516.75;;;8.59;100.00
11114;BME280;5610;52.154;9.198;2024-02-14T05:40:00;100525.56;;;8.59;100.00
11114;BME280;5610;52.154;9.198;2024-02-14T05:42:47;100509.56;;;8.61;100.00
11114;BME280;5610;52.154;9.198;2024-02-14T05:45:33;100523.19;;;8.55;100.00
11114;BME280;5610;52.154;9.198;2024-02-14T05:48:19;100518.28;;;8.63;100.00
11114;BME280;5610;52.154;9.198;2024-02-14T05:51:04;100508.28;;;8.68;100.00
11114;BME280;5610;52.154;9.198;2024-02-14T05:53:49;100507.94;;;8.74;100.00
11114;BME280;5610;52.154;9.198;2024-02-14T05:56:35;100505.19;;;8.75;100.00
11114;BME280;5610;52.154;9.198;2024-02-14T05:59:22;100508.03;;;8.88;100.00
11114;BME280;5610;52.154;9.198;2024-02-14T06:02:07;100511.53;;;8.89;100.00
11114;BME280;5610;52.154;9.198;2024-02-14T06:04:53;100520.50;;;8.86;100.00
11114;BME280;5610;52.154;9.198;2024-02-14T06:07:38;100503.06;;;8.82;100.00
11114;BME280;5610;52.154;9.198;2024-02-14T06:10:24;100503.22;;;8.79;100.00
11114;BME280;5610;52.154;9.198;2024-02-14T06:13:09;100515.91;;;8.74;100.00
11114;BME280;5610;52.154;9.198;2024-02-14T06:15:56;100519.25;;;8.77;100.00
11114;BME280;5610;52.154;9.198;2024-02-14T06:18:41;100512.53;;;8.86;100.00
11114;BME280;5610;52.154;9.198;2024-02-14T06:21:27;100525.50;;;8.92;100.00
11114;BME280;5610;52.154;9.198;2024-02-14T06:24:13;100531.75;;;8.91;100.00
11114;BME280;5610;52.154;9.198;2024-02-14T06:26:58;100530.66;;;8.95;100.00
11114;BME280;5610;52.154;9.198;2024-02-14T06:29:43;100532.41;;;8.95;100.00
11114;BME280;5610;52.154;9.198;2024-02-14T06:32:30;100541.00;;;9.00;100.00
11114;BME280;5610;52.154;9.198;2024-02-14T06:35:15;100533.44;;;9.08;100.00
11114;BME280;5610;52.154;9.198;2024-02-14T06:38:03;100526.84;;;8.99;100.00
11114;BME280;5610;52.154;9.198;2024-02-14T06:40:48;100542.22;;;9.10;100.00
11114;BME280;5610;52.154;9.198;2024-02-14T06:43:34;100532.94;;;9.17;100.00
11114;BME280;5610;52.154;9.198;2024-02-14T06:46:20;100551.97;;;9.10;100.00
11114;BME280;5610;52.154;9.198;2024-02-14T06:49:06;100555.91;;;9.18;100.00
11114;BME280;5610;52.154;9.198;2024-02-14T06:51:51;100557.97;;;9.13;100.00
11114;BME280;5610;52.154;9.198;2024-02-14T06:54:37;100556.06;;;9.15;100.00
11114;BME280;5610;52.154;9.198;2024-02-14T06:57:22;100562.44;;;9.13;100.00
11114;BME280;5610;52.154;9.198;2024-02-14T07:00:09;100549.47;;;9.06;100.00
11114;BME280;5610;52.154;9.198;2024-02-14T07:02:54;100575.03;;;9.09;100.00
11114;BME280;5610;52.154;9.198;2024-02-14T07:05:40;100568.84;;;9.08;100.00
11114;BME280;5610;52.154;9.198;2024-02-14T07:08:26;100571.34;;;9.12;100.00
11114;BME280;5610;52.154;9.198;2024-02-14T07:11:12;100587.13;;;9.15;100.00
11114;BME280;5610;52.154;9.198;2024-02-14T07:13:57;100585.16;;;9.02;100.00
11114;BME280;5610;52.154;9.198;2024-02-14T07:16:42;100568.53;;;8.99;100.00
11114;BME280;5610;52.154;9.198;2024-02-14T07:19:27;100583.72;;;8.97;100.00
11114;BME280;5610;52.154;9.198;2024-02-14T07:22:14;100579.56;;;9.07;100.00
11114;BME280;5610;52.154;9.198;2024-02-14T07:24:59;100584.28;;;9.02;100.00
11114;BME280;5610;52.154;9.198;2024-02-14T07:27:45;100575.91;;;9.10;100.00
11114;BME280;5610;52.154;9.198;2024-02-14T07:30:32;100586.34;;;9.13;100.00
11114;BME280;5610;52.154;9.198;2024-02-14T07:33:17;100583.75;;;9.27;100.00
11114;BME280;5610;52.154;9.198;2024-02-14T07:36:03;100592.28;;;9.18;100.00
11114;BME280;5610;52.154;9.198;2024-02-14T07:38:49;100591.06;;;9.23;100.00
11114;BME280;5610;52.154;9.198;2024-02-14T07:41:35;100590.88;;;9.26;100.00
11114;BME280;5610;52.154;9.198;2024-02-14T07:44:20;100593.09;;;9.34;100.00
11114;BME280;5610;52.154;9.198;2024-02-14T07:47:05;100598.50;;;9.48;100.00
11114;BME280;5610;52.154;9.198;2024-02-14T07:49:50;100593.72;;;9.39;100.00
11114;BME280;5610;52.154;9.198;2024-02-14T07:52:41;100604.75;;;9.47;100.00
11114;BME280;5610;52.154;9.198;2024-02-14T07:55:27;100591.97;;;9.54;100.00
11114;BME280;5610;52.154;9.198;2024-02-14T07:58:13;100602.75;;;9.67;100.00
11114;BME280;5610;52.154;9.198;2024-02-14T08:00:58;100623.94;;;9.68;100.00
11114;BME280;5610;52.154;9.198;2024-02-14T08:03:43;100604.22;;;9.56;100.00
11114;BME280;5610;52.154;9.198;2024-02-14T08:06:29;100608.84;;;9.69;100.00
11114;BME280;5610;52.154;9.198;2024-02-14T08:09:15;100615.22;;;9.66;100.00
11114;BME280;5610;52.154;9.198;2024-02-14T08:12:02;100613.03;;;9.73;100.00
11114;BME280;5610;52.154;9.198;2024-02-14T08:14:47;100615.97;;;9.68;100.00
11114;BME280;5610;52.154;9.198;2024-02-14T08:17:32;100619.34;;;9.86;100.00
11114;BME280;5610;52.154;9.198;2024-02-14T08:20:19;100614.00;;;9.86;100.00
11114;BME280;5610;52.154;9.198;2024-02-14T08:23:04;100614.50;;;9.93;100.00
11114;BME280;5610;52.154;9.198;2024-02-14T08:25:49;100620.69;;;9.93;100.00
11114;BME280;5610;52.154;9.198;2024-02-14T08:28:36;100635.84;;;10.07;100.00
11114;BME280;5610;52.154;9.198;2024-02-14T08:31:21;100612.84;;;10.06;100.00
11114;BME280;5610;52.154;9.198;2024-02-14T08:34:06;100607.03;;;10.13;100.00
11114;BME280;5610;52.154;9.198;2024-02-14T08:36:53;100619.66;;;10.26;100.00
11114;BME280;5610;52.154;9.198;2024-02-14T08:39:39;100613.47;;;10.25;100.00
11114;BME280;5610;52.154;9.198;2024-02-14T08:42:24;100620.91;;;10.34;100.00
11114;BME280;5610;52.154;9.198;2024-02-14T08:45:11;100625.94;;;10.25;100.00
11114;BME280;5610;52.154;9.198;2024-02-14T08:47:56;100621.47;;;10.25;100.00
11114;BME280;5610;52.154;9.198;2024-02-14T08:50:41;100620.16;;;10.32;100.00
11114;BME280;5610;52.154;9.198;2024-02-14T08:53:26;100625.75;;;10.28;100.00
11114;BME280;5610;52.154;9.198;2024-02-14T08:56:11;100630.03;;;10.30;100.00
11114;BME280;5610;52.154;9.198;2024-02-14T08:58:56;100625.22;;;10.21;100.00
11114;BME280;5610;52.154;9.198;2024-02-14T09:01:43;100634.06;;;10.22;100.00
11114;BME280;5610;52.154;9.198;2024-02-14T09:04:28;100621.75;;;10.35;100.00
11114;BME280;5610;52.154;9.198;2024-02-14T09:07:13;100646.41;;;10.38;100.00
11114;BME280;5610;52.154;9.198;2024-02-14T09:09:58;100628.41;;;10.42;100.00
11114;BME280;5610;52.154;9.198;2024-02-14T09:12:43;100632.53;;;10.62;100.00
11114;BME280;5610;52.154;9.198;2024-02-14T09:15:29;100628.84;;;10.79;100.00
11114;BME280;5610;52.154;9.198;2024-02-14T09:18:16;100634.16;;;10.93;100.00
11114;BME280;5610;52.154;9.198;2024-02-14T09:21:03;100633.19;;;10.94;100.00
11114;BME280;5610;52.154;9.198;2024-02-14T09:23:49;100633.66;;;11.00;100.00
11114;BME280;5610;52.154;9.198;2024-02-14T09:26:34;100638.91;;;11.02;100.00
11114;BME280;5610;52.154;9.198;2024-02-14T09:29:19;100635.28;;;10.89;100.00
11114;BME280;5610;52.154;9.198;2024-02-14T09:32:04;100634.53;;;11.01;100.00
11114;BME280;5610;52.154;9.198;2024-02-14T09:34:51;100642.69;;;10.98;100.00
11114;BME280;5610;52.154;9.198;2024-02-14T09:37:37;100647.28;;;10.96;100.00
11114;BME280;5610;52.154;9.198;2024-02-14T09:40:23;100636.41;;;10.85;100.00
11114;BME280;5610;52.154;9.198;2024-02-14T09:43:16;100638.22;;;10.98;100.00
11114;BME280;5610;52.154;9.198;2024-02-14T09:46:02;100645.28;;;10.85;100.00
11114;BME280;5610;52.154;9.198;2024-02-14T09:48:48;100642.22;;;10.91;100.00
11114;BME280;5610;52.154;9.198;2024-02-14T09:51:35;100655.19;;;10.97;100.00
11114;BME280;5610;52.154;9.198;2024-02-14T09:54:23;100664.22;;;10.95;100.00
11114;BME280;5610;52.154;9.198;2024-02-14T09:57:09;100664.41;;;10.92;100.00
11114;BME280;5610;52.154;9.198;2024-02-14T09:59:56;100667.16;;;11.05;100.00
11114;BME280;5610;52.154;9.198;2024-02-14T10:02:42;100667.16;;;11.05;100.00
11114;BME280;5610;52.154;9.198;2024-02-14T10:05:28;100677.81;;;11.19;100.00
11114;BME280;5610;52.154;9.198;2024-02-14T10:08:14;100664.38;;;11.20;100.00
11114;BME280;5610;52.154;9.198;2024-02-14T10:10:59;100674.09;;;11.36;100.00
11114;BME280;5610;52.154;9.198;2024-02-14T10:13:48;100679.44;;;11.21;100.00
11114;BME280;5610;52.154;9.198;2024-02-14T10:16:34;100680.38;;;11.35;100.00
11114;BME280;5610;52.154;9.198;2024-02-14T10:19:20;100695.91;;;11.42;100.00
11114;BME280;5610;52.154;9.198;2024-02-14T10:22:05;100668.94;;;11.33;100.00
11114;BME280;5610;52.154;9.198;2024-02-14T10:24:53;100678.00;;;11.30;100.00
11114;BME280;5610;52.154;9.198;2024-02-14T10:27:39;100685.88;;;11.46;100.00
11114;BME280;5610;52.154;9.198;2024-02-14T10:30:25;100697.56;;;11.58;100.00
11114;BME280;5610;52.154;9.198;2024-02-14T10:33:10;100702.69;;;11.61;100.00
11114;BME280;5610;52.154;9.198;2024-02-14T10:35:57;100704.00;;;11.68;100.00
11114;BME280;5610;52.154;9.198;2024-02-14T10:38:43;100699.41;;;11.70;100.00
11114;BME280;5610;52.154;9.198;2024-02-14T10:41:33;100705.03;;;11.79;100.00
11114;BME280;5610;52.154;9.198;2024-02-14T10:44:19;100700.13;;;11.59;100.00
11114;BME280;5610;52.154;9.198;2024-02-14T10:47:06;100699.75;;;11.65;100.00
11114;BME280;5610;52.154;9.198;2024-02-14T10:49:54;100698.59;;;11.96;100.00
11114;BME280;5610;52.154;9.198;2024-02-14T10:52:41;100690.84;;;12.71;100.00
11114;BME280;5610;52.154;9.198;2024-02-14T10:55:30;100716.50;;;12.74;100.00
11114;BME280;5610;52.154;9.198;2024-02-14T10:58:17;100713.38;;;12.42;100.00
11114;BME280;5610;52.154;9.198;2024-02-14T11:01:03;100708.19;;;12.26;100.00
11114;BME280;5610;52.154;9.198;2024-02-14T11:03:48;100727.84;;;12.25;100.00
11114;BME280;5610;52.154;9.198;2024-02-14T11:06:44;100707.00;;;12.17;100.00
11114;BME280;5610;52.154;9.198;2024-02-14T11:09:33;100714.13;;;12.44;100.00
11114;BME280;5610;52.154;9.198;2024-02-14T11:12:22;100707.50;;;12.49;100.00
11114;BME280;5610;52.154;9.198;2024-02-14T11:15:16;100705.78;;;12.35;100.00
11114;BME280;5610;52.154;9.198;2024-02-14T11:18:06;100714.72;;;12.22;100.00
11114;BME280;5610;52.154;9.198;2024-02-14T11:20:52;100713.88;;;11.94;100.00
11114;BME280;5610;52.154;9.198;2024-02-14T11:23:38;100702.97;;;11.97;100.00
11114;BME280;5610;52.154;9.198;2024-02-14T11:26:23;100706.94;;;11.92;100.00
11114;BME280;5610;52.154;9.198;2024-02-14T11:29:14;100715.13;;;11.89;100.00
11114;BME280;5610;52.154;9.198;2024-02-14T11:32:01;100707.47;;;11.97;100.00
11114;BME280;5610;52.154;9.198;2024-02-14T11:34:53;100719.91;;;12.10;100.00
11114;BME280;5610;52.154;9.198;2024-02-14T11:37:39;100719.78;;;12.12;100.00
11114;BME280;5610;52.154;9.198;2024-02-14T11:40:25;100716.81;;;12.17;100.00
11114;BME280;5610;52.154;9.198;2024-02-14T11:43:11;100721.50;;;12.53;100.00
11114;BME280;5610;52.154;9.198;2024-02-14T11:45:58;100718.06;;;12.38;100.00
11114;BME280;5610;52.154;9.198;2024-02-14T11:48:45;100724.94;;;12.55;100.00
11114;BME280;5610;52.154;9.198;2024-02-14T11:51:31;100720.88;;;12.49;100.00
11114;BME280;5610;52.154;9.198;2024-02-14T11:54:17;100722.75;;;12.34;100.00
11114;BME280;5610;52.154;9.198;2024-02-14T11:57:04;100731.25;;;12.14;100.00
11114;BME280;5610;52.154;9.198;2024-02-14T11:59:52;100727.78;;;12.26;100.00
11114;BME280;5610;52.154;9.198;2024-02-14T12:02:38;100734.22;;;12.09;100.00
11114;BME280;5610;52.154;9.198;2024-02-14T12:05:26;100730.13;;;12.04;100.00
11114;BME280;5610;52.154;9.198;2024-02-14T12:08:11;100730.75;;;12.22;100.00
11114;BME280;5610;52.154;9.198;2024-02-14T12:10:58;100733.72;;;12.17;100.00
11114;BME280;5610;52.154;9.198;2024-02-14T12:13:43;100736.94;;;12.22;100.00
11114;BME280;5610;52.154;9.198;2024-02-14T12:16:31;100740.81;;;12.31;100.00
11114;BME280;5610;52.154;9.198;2024-02-14T12:19:20;100745.91;;;12.21;100.00
11114;BME280;5610;52.154;9.198;2024-02-14T12:22:09;100745.41;;;12.29;100.00
11114;BME280;5610;52.154;9.198;2024-02-14T12:25:01;100748.19;;;12.27;100.00
11114;BME280;5610;52.154;9.198;2024-02-14T12:27:50;100744.41;;;12.17;100.00
11114;BME280;5610;52.154;9.198;2024-02-14T12:30:45;100746.31;;;12.15;100.00
11114;BME280;5610;52.154;9.198;2024-02-14T12:33:32;100751.81;;;12.26;100.00
11114;BME280;5610;52.154;9.198;2024-02-14T12:36:19;100749.44;;;11.95;100.00
11114;BME280;5610;52.154;9.198;2024-02-14T12:39:05;100741.16;;;11.99;100.00
11114;BME280;5610;52.154;9.198;2024-02-14T12:41:53;100745.75;;;12.10;100.00
11114;BME280;5610;52.154;9.198;2024-02-14T12:44:39;100745.75;;;12.10;100.00
11114;BME280;5610;52.154;9.198;2024-02-14T12:47:24;100748.94;;;12.29;100.00
11114;BME280;5610;52.154;9.198;2024-02-14T12:50:15;100744.59;;;12.41;100.00
11114;BME280;5610;52.154;9.198;2024-02-14T12:53:00;100741.06;;;12.41;100.00
11114;BME280;5610;52.154;9.198;2024-02-14T12:55:47;100747.81;;;12.59;100.00
11114;BME280;5610;52.154;9.198;2024-02-14T12:58:32;100758.84;;;12.67;100.00
11114;BME280;5610;52.154;9.198;2024-02-14T13:01:17;100761.41;;;12.56;100.00
11114;BME280;5610;52.154;9.198;2024-02-14T13:04:03;100753.91;;;12.61;100.00
11114;BME280;5610;52.154;9.198;2024-02-14T13:06:50;100751.22;;;12.61;100.00
11114;BME280;5610;52.154;9.198;2024-02-14T13:09:35;100752.00;;;12.63;100.00
11114;BME280;5610;52.154;9.198;2024-02-14T13:12:22;100740.22;;;12.65;100.00
11114;BME280;5610;52.154;9.198;2024-02-14T13:15:08;100753.50;;;12.80;100.00
11114;BME280;5610;52.154;9.198;2024-02-14T13:17:54;100753.19;;;12.84;100.00
11114;BME280;5610;52.154;9.198;2024-02-14T13:20:42;100750.03;;;12.52;100.00
11114;BME280;5610;52.154;9.198;2024-02-14T13:23:28;100745.38;;;12.56;100.00
11114;BME280;5610;52.154;9.198;2024-02-14T13:26:13;100743.72;;;12.41;100.00
11114;BME280;5610;52.154;9.198;2024-02-14T13:29:00;100741.53;;;12.20;100.00
11114;BME280;5610;52.154;9.198;2024-02-14T13:31:45;100758.75;;;12.29;100.00
11114;BME280;5610;52.154;9.198;2024-02-14T13:34:30;100746.16;;;12.31;100.00
11114;BME280;5610;52.154;9.198;2024-02-14T13:37:15;100740.19;;;12.40;100.00
11114;BME280;5610;52.154;9.198;2024-02-14T13:40:01;100736.56;;;12.54;100.00
11114;BME280;5610;52.154;9.198;2024-02-14T13:42:47;100732.00;;;12.56;100.00
11114;BME280;5610;52.154;9.198;2024-02-14T13:45:41;100737.47;;;12.80;100.00
11114;BME280;5610;52.154;9.198;2024-02-14T13:48:29;100737.44;;;12.67;100.00
11114;BME280;5610;52.154;9.198;2024-02-14T13:51:14;100740.34;;;12.64;100.00
11114;BME280;5610;52.154;9.198;2024-02-14T13:54:00;100738.50;;;12.52;100.00
11114;BME280;5610;52.154;9.198;2024-02-14T13:56:45;100731.44;;;12.51;100.00
11114;BME280;5610;52.154;9.198;2024-02-14T13:59:32;100745.44;;;12.54;100.00
11114;BME280;5610;52.154;9.198;2024-02-14T14:02:18;100744.84;;;12.63;100.00
11114;BME280;5610;52.154;9.198;2024-02-14T14:05:04;100741.94;;;12.67;100.00
11114;BME280;5610;52.154;9.198;2024-02-14T14:07:51;100746.75;;;12.61;100.00
11114;BME280;5610;52.154;9.198;2024-02-14T14:10:37;100732.91;;;12.29;100.00
11114;BME280;5610;52.154;9.198;2024-02-14T14:13:22;100726.72;;;12.42;100.00
11114;BME280;5610;52.154;9.198;2024-02-14T14:16:07;100736.78;;;12.51;100.00
11114;BME280;5610;52.154;9.198;2024-02-14T14:18:54;100728.34;;;12.57;100.00
11114;BME280;5610;52.154;9.198;2024-02-14T14:21:39;100724.16;;;12.53;100.00
11114;BME280;5610;52.154;9.198;2024-02-14T14:24:24;100730.06;;;12.58;100.00
11114;BME280;5610;52.154;9.198;2024-02-14T14:27:11;100741.28;;;12.50;100.00
11114;BME280;5610;52.154;9.198;2024-02-14T14:29:57;100750.38;;;12.60;100.00
11114;BME280;5610;52.154;9.198;2024-02-14T14:32:42;100742.69;;;12.56;100.00
11114;BME280;5610;52.154;9.198;2024-02-14T14:35:29;100746.84;;;12.60;100.00